createdAt,value
2023-05-22T00:02:10.879Z,67.59
2023-05-22T00:04:40.010Z,67.96
2023-05-22T00:07:09.641Z,67.81
2023-05-22T00:09:37.826Z,68.06
2023-05-22T00:12:06.960Z,68.25
2023-05-22T00:14:35.078Z,68.33
2023-05-22T00:17:03.468Z,68.31
2023-05-22T00:19:33.122Z,68.09
2023-05-22T00:22:01.492Z,68.80
2023-05-22T00:24:31.916Z,68.13
2023-05-22T00:27:00.100Z,68.67
2023-05-22T00:29:28.243Z,68.89
2023-05-22T00:31:56.422Z,69.62
2023-05-22T00:34:24.601Z,69.64
2023-05-22T00:36:52.795Z,69.60
2023-05-22T00:39:21.323Z,69.71
2023-05-22T00:41:50.857Z,69.04
2023-05-22T00:44:18.976Z,69.38
2023-05-22T00:46:47.197Z,69.30
2023-05-22T00:49:15.417Z,70.04
2023-05-22T00:51:43.734Z,69.98
2023-05-22T00:54:13.613Z,69.76
2023-05-22T00:56:43.566Z,69.27
2023-05-22T00:59:13.516Z,68.68
2023-05-22T01:01:42.985Z,68.59
2023-05-22T01:04:14.710Z,68.37
2023-05-22T01:06:42.932Z,68.93
2023-05-22T01:09:11.130Z,69.23
2023-05-22T01:11:49.060Z,69.00
2023-05-22T01:14:30.473Z,68.97
2023-05-22T01:17:11.269Z,69.37
2023-05-22T01:20:06.961Z,69.61
2023-05-22T01:23:30.729Z,69.02
2023-05-22T01:26:21.757Z,69.01
2023-05-22T01:29:31.817Z,68.99
2023-05-22T01:32:04.090Z,69.48
2023-05-22T01:34:36.498Z,68.93
2023-05-22T01:37:07.053Z,68.71
2023-05-22T01:39:36.656Z,68.97
2023-05-22T01:42:06.648Z,68.26
2023-05-22T01:44:34.793Z,68.86
2023-05-22T01:47:05.781Z,69.20
2023-05-22T01:49:35.657Z,69.65
2023-05-22T01:52:13.876Z,68.82
2023-05-22T01:54:52.687Z,68.31
2023-05-22T01:57:29.981Z,69.29
2023-05-22T02:00:09.813Z,69.42
2023-05-22T02:02:43.311Z,69.87
2023-05-22T02:05:13.651Z,69.52
2023-05-22T02:07:44.493Z,69.31
2023-05-22T02:10:15.009Z,69.99
2023-05-22T02:12:43.527Z,70.12
2023-05-22T02:15:12.701Z,69.22
2023-05-22T02:17:42.577Z,69.70
2023-05-22T02:20:15.083Z,70.30
2023-05-22T02:22:45.037Z,70.01
2023-05-22T02:25:15.164Z,69.59
2023-05-22T02:27:44.095Z,68.72
2023-05-22T02:30:13.312Z,69.41
2023-05-22T02:32:43.616Z,69.61
2023-05-22T02:35:11.973Z,70.08
2023-05-22T02:37:42.178Z,69.75
2023-05-22T02:40:11.693Z,69.87
2023-05-22T02:42:39.868Z,69.50
2023-05-22T02:45:10.029Z,69.48
2023-05-22T02:47:38.190Z,69.96
2023-05-22T02:50:09.010Z,70.22
2023-05-22T02:52:39.285Z,69.96
2023-05-22T02:55:09.144Z,69.71
2023-05-22T02:57:37.300Z,69.16
2023-05-22T03:00:06.923Z,68.80
2023-05-22T03:02:36.420Z,69.85
2023-05-22T03:05:05.391Z,69.96
2023-05-22T03:07:34.864Z,69.64
2023-05-22T03:10:03.000Z,68.73
2023-05-22T03:12:31.139Z,69.09
2023-05-22T03:14:59.256Z,68.85
2023-05-22T03:17:27.420Z,68.69
2023-05-22T03:19:55.587Z,68.71
2023-05-22T03:22:23.703Z,67.84
2023-05-22T03:24:53.475Z,68.00
2023-05-22T03:27:21.649Z,67.68
2023-05-22T03:29:49.789Z,66.89
2023-05-22T03:32:17.922Z,67.37
2023-05-22T03:34:46.236Z,67.10
2023-05-22T03:37:14.425Z,67.29
2023-05-22T03:39:42.638Z,66.07
2023-05-22T03:42:13.377Z,66.14
2023-05-22T03:44:41.527Z,65.36
2023-05-22T03:47:09.676Z,65.81
2023-05-22T03:49:37.796Z,65.18
2023-05-22T03:52:06.370Z,65.70
2023-05-22T03:54:34.550Z,65.88
2023-05-22T03:57:03.631Z,65.61
2023-05-22T03:59:33.130Z,65.98
2023-05-22T04:02:01.705Z,65.54
2023-05-22T04:04:29.948Z,65.00
2023-05-22T04:06:59.230Z,64.73
2023-05-22T04:09:28.454Z,64.96
2023-05-22T04:11:56.603Z,65.02
2023-05-22T04:14:24.794Z,64.34
2023-05-22T04:16:55.116Z,64.14
2023-05-22T04:19:23.335Z,63.50
2023-05-22T04:21:51.479Z,63.66
2023-05-22T04:24:19.674Z,63.28
2023-05-22T04:26:47.861Z,63.01
2023-05-22T04:29:16.519Z,62.72
2023-05-22T04:31:44.736Z,63.03
2023-05-22T04:34:17.127Z,62.72
2023-05-22T04:36:46.476Z,63.05
2023-05-22T04:39:15.804Z,62.50
2023-05-22T04:41:44.336Z,62.28
2023-05-22T04:44:12.439Z,62.58
2023-05-22T04:46:40.612Z,61.79
2023-05-22T04:49:08.924Z,61.31
2023-05-22T04:51:38.354Z,60.68
2023-05-22T04:54:06.524Z,60.53
2023-05-22T04:56:36.810Z,59.67
2023-05-22T04:59:08.712Z,59.16
2023-05-22T05:01:37.848Z,59.01
2023-05-22T05:04:06.590Z,58.73
2023-05-22T05:06:35.811Z,57.92
2023-05-22T05:09:05.551Z,58.35
2023-05-22T05:11:33.648Z,58.52
2023-05-22T05:14:01.754Z,57.20
2023-05-22T05:16:29.950Z,57.26
2023-05-22T05:18:58.271Z,56.34
2023-05-22T05:21:27.803Z,56.31
2023-05-22T05:23:56.020Z,55.74
2023-05-22T05:26:27.146Z,55.50
2023-05-22T05:28:56.596Z,56.21
2023-05-22T05:31:24.880Z,55.48
2023-05-22T05:33:53.051Z,55.45
2023-05-22T05:36:21.155Z,54.78
2023-05-22T05:38:49.206Z,54.88
2023-05-22T05:41:18.937Z,54.97
2023-05-22T05:43:48.495Z,55.11
2023-05-22T05:46:16.638Z,55.05
2023-05-22T05:48:44.791Z,54.66
2023-05-22T05:51:12.861Z,54.40
2023-05-22T05:53:41.589Z,54.56
2023-05-22T05:56:10.577Z,54.41
2023-05-22T05:58:38.976Z,53.98
2023-05-22T06:01:08.489Z,53.63
2023-05-22T06:03:36.642Z,53.19
2023-05-22T06:06:05.467Z,53.38
2023-05-22T06:08:34.435Z,53.22
2023-05-22T06:11:03.339Z,52.77
2023-05-22T06:13:31.416Z,52.40
2023-05-22T06:16:02.802Z,52.33
2023-05-22T06:18:34.386Z,52.83
2023-05-22T06:21:02.478Z,52.51
2023-05-22T06:23:30.842Z,52.75
2023-05-22T06:25:58.892Z,51.97
2023-05-22T06:28:26.943Z,51.13
2023-05-22T06:30:55.034Z,50.76
2023-05-22T06:33:23.269Z,50.81
2023-05-22T06:35:52.849Z,50.77
2023-05-22T06:38:20.951Z,50.35
2023-05-22T06:40:49.290Z,50.52
2023-05-22T06:43:17.548Z,50.07
2023-05-22T06:45:46.006Z,49.91
2023-05-22T06:48:14.216Z,49.74
2023-05-22T06:50:42.418Z,49.96
2023-05-22T06:53:12.625Z,50.08
2023-05-22T06:55:40.694Z,49.83
2023-05-22T06:58:08.800Z,49.52
2023-05-22T07:00:36.991Z,49.48
2023-05-22T07:03:06.684Z,49.96
2023-05-22T07:05:34.916Z,49.54
2023-05-22T07:08:03.057Z,49.75
2023-05-22T07:10:32.437Z,48.99
2023-05-22T07:13:00.556Z,49.42
2023-05-22T07:15:28.639Z,49.18
2023-05-22T07:17:56.820Z,49.12
2023-05-22T07:20:26.143Z,48.96
2023-05-22T07:22:54.307Z,48.71
2023-05-22T07:25:22.368Z,48.59
2023-05-22T07:27:52.013Z,48.69
2023-05-22T07:30:20.133Z,48.99
2023-05-22T07:32:49.440Z,48.96
2023-05-22T07:35:17.914Z,49.35
2023-05-22T07:37:46.061Z,49.17
2023-05-22T07:40:14.411Z,49.45
2023-05-22T07:42:42.567Z,50.00
2023-05-22T07:45:12.745Z,50.23
2023-05-22T07:47:40.839Z,50.40
2023-05-22T07:50:10.447Z,50.44
2023-05-22T07:52:38.679Z,50.27
2023-05-22T07:55:08.728Z,50.63
2023-05-22T07:57:36.888Z,49.75
2023-05-22T08:00:13.909Z,49.37
2023-05-22T08:02:44.035Z,49.45
2023-05-22T08:05:12.551Z,48.78
2023-05-22T08:07:40.779Z,48.37
2023-05-22T08:10:16.609Z,47.75
2023-05-22T08:12:45.093Z,47.57
2023-05-22T08:15:13.438Z,47.39
2023-05-22T08:17:42.992Z,47.32
2023-05-22T08:20:12.379Z,47.81
2023-05-22T08:22:41.345Z,47.93
2023-05-22T08:25:10.613Z,48.53
2023-05-22T08:31:44.646Z,47.83
2023-05-22T08:34:14.182Z,47.69
2023-05-22T08:36:42.320Z,47.82
2023-05-22T08:39:12.146Z,47.17
2023-05-22T08:41:40.364Z,46.83
2023-05-22T08:44:08.588Z,46.33
2023-05-22T08:46:38.214Z,46.06
2023-05-22T08:49:07.001Z,46.02
2023-05-22T08:51:42.266Z,46.10
2023-05-22T08:54:10.877Z,46.21
2023-05-22T08:56:52.976Z,46.32
2023-05-22T08:59:24.507Z,46.14
2023-05-22T09:01:53.834Z,45.83
2023-05-22T09:04:24.204Z,45.79
2023-05-22T09:06:55.127Z,45.67
2023-05-22T09:09:23.384Z,44.31
2023-05-22T09:11:51.849Z,44.25
2023-05-22T09:14:20.395Z,43.99
2023-05-22T09:16:51.120Z,43.28
2023-05-22T09:19:20.053Z,42.65
2023-05-22T09:21:48.606Z,42.65
2023-05-22T09:24:18.201Z,42.66
2023-05-22T09:26:46.423Z,40.39
2023-05-22T09:29:14.598Z,39.87
2023-05-22T09:31:45.127Z,39.61
2023-05-22T09:34:15.404Z,39.79
2023-05-22T09:36:45.299Z,39.79
2023-05-22T09:39:13.679Z,39.34
2023-05-22T09:41:45.801Z,39.39
2023-05-22T09:44:15.012Z,39.57
2023-05-22T09:46:45.257Z,39.95
2023-05-22T09:49:16.414Z,39.42
2023-05-22T09:51:48.787Z,39.35
2023-05-22T09:54:21.677Z,39.56
2023-05-22T09:56:56.169Z,39.97
2023-05-22T09:59:31.405Z,40.16
2023-05-22T10:02:01.817Z,39.66
2023-05-22T10:04:35.750Z,39.76
2023-05-22T10:07:04.853Z,39.86
2023-05-22T10:09:37.066Z,39.67
2023-05-22T10:12:10.765Z,39.69
2023-05-22T10:14:39.074Z,39.11
2023-05-22T10:17:07.940Z,38.86
2023-05-22T10:19:40.692Z,38.61
2023-05-22T10:22:20.638Z,38.49
2023-05-22T10:24:49.575Z,38.80
2023-05-22T10:27:19.276Z,38.72
2023-05-22T10:29:58.204Z,38.96
2023-05-22T10:32:36.735Z,38.23
2023-05-22T10:35:19.418Z,38.63
2023-05-22T10:37:54.237Z,38.80
2023-05-22T10:40:30.253Z,39.00
2023-05-22T10:43:01.801Z,39.39
2023-05-22T10:45:31.670Z,38.70
2023-05-22T10:48:08.001Z,38.41
2023-05-22T10:50:37.717Z,38.37
2023-05-22T10:53:24.828Z,38.44
2023-05-22T10:55:54.653Z,38.63
2023-05-22T10:58:30.374Z,38.87
2023-05-22T11:01:15.867Z,38.89
2023-05-22T11:03:56.216Z,38.48
2023-05-22T11:06:36.504Z,38.44
2023-05-22T11:09:28.861Z,38.39
2023-05-22T11:12:27.406Z,38.94
2023-05-22T11:14:59.520Z,38.19
2023-05-22T11:17:29.704Z,37.92
2023-05-22T11:20:05.171Z,37.64
2023-05-22T11:22:36.576Z,37.20
2023-05-22T11:25:11.593Z,37.91
2023-05-22T11:27:42.773Z,37.61
2023-05-22T11:30:15.864Z,37.24
2023-05-22T11:32:46.565Z,37.45
2023-05-22T11:35:19.912Z,37.24
2023-05-22T11:37:49.909Z,37.40
2023-05-22T11:40:20.981Z,37.20
2023-05-22T11:42:49.556Z,36.71
2023-05-22T11:45:19.093Z,37.18
2023-05-22T11:47:48.495Z,36.79
2023-05-22T11:50:22.606Z,36.73
2023-05-22T11:52:56.270Z,36.66
2023-05-22T11:55:25.163Z,36.84
2023-05-22T11:57:56.830Z,36.78
2023-05-22T12:00:26.808Z,36.56
2023-05-22T12:02:55.943Z,36.16
2023-05-22T12:05:24.086Z,36.37
2023-05-22T12:07:52.434Z,36.65
2023-05-22T12:10:20.921Z,36.24
2023-05-22T12:12:49.130Z,36.10
2023-05-22T12:15:21.014Z,36.05
2023-05-22T12:17:50.475Z,36.16
2023-05-22T12:20:18.683Z,36.33
2023-05-22T12:22:46.843Z,36.76
2023-05-22T12:25:17.518Z,36.34
2023-05-22T12:27:46.214Z,35.86
2023-05-22T12:30:16.600Z,35.86
2023-05-22T12:32:51.580Z,35.87
2023-05-22T12:35:20.701Z,36.22
2023-05-22T12:37:53.096Z,35.74
2023-05-22T12:40:21.186Z,35.84
2023-05-22T12:42:50.097Z,35.99
2023-05-22T12:45:18.817Z,35.69
2023-05-22T12:47:47.123Z,35.41
2023-05-22T12:50:16.875Z,35.77
2023-05-22T12:52:44.988Z,35.88
2023-05-22T12:55:13.122Z,35.71
2023-05-22T12:57:41.207Z,35.16
2023-05-22T13:00:11.181Z,35.61
2023-05-22T13:02:39.414Z,35.75
2023-05-22T13:05:08.508Z,34.97
2023-05-22T13:07:38.552Z,34.95
2023-05-22T13:10:08.221Z,34.31
2023-05-22T13:12:36.305Z,34.59
2023-05-22T13:15:04.562Z,34.36
2023-05-22T13:17:32.714Z,34.25
2023-05-22T13:20:01.120Z,34.25
2023-05-22T13:22:29.429Z,34.19
2023-05-22T13:24:58.810Z,33.99
2023-05-22T13:27:27.441Z,33.99
2023-05-22T13:29:55.532Z,34.07
2023-05-22T13:32:23.649Z,34.26
2023-05-22T13:34:51.801Z,34.06
2023-05-22T13:37:20.044Z,34.15
2023-05-22T13:39:48.358Z,34.33
2023-05-22T13:42:17.856Z,34.09
2023-05-22T13:44:46.007Z,33.71
2023-05-22T13:47:14.136Z,34.04
2023-05-22T13:49:42.262Z,34.10
2023-05-22T13:52:10.403Z,33.83
2023-05-22T13:54:38.440Z,33.84
2023-05-22T13:57:07.590Z,34.01
2023-05-22T13:59:37.005Z,33.61
2023-05-22T14:02:05.683Z,33.68
2023-05-22T14:04:33.950Z,32.71
2023-05-22T14:07:02.011Z,32.51
2023-05-22T14:09:31.137Z,32.16
2023-05-22T14:11:59.195Z,31.88
2023-05-22T14:14:27.291Z,32.02
2023-05-22T14:16:56.810Z,31.98
2023-05-22T14:19:25.467Z,32.14
2023-05-22T14:21:53.624Z,31.68
2023-05-22T14:24:21.802Z,31.43
2023-05-22T14:26:49.836Z,30.96
2023-05-22T14:29:18.194Z,30.57
2023-05-22T14:31:49.796Z,30.81
2023-05-22T14:34:20.927Z,29.97
2023-05-22T14:36:48.960Z,30.04
2023-05-22T14:39:17.077Z,30.23
2023-05-22T14:41:45.192Z,30.09
2023-05-22T14:44:13.252Z,29.91
2023-05-22T14:46:41.305Z,30.32
2023-05-22T14:49:09.406Z,30.43
2023-05-22T14:51:38.788Z,30.40
2023-05-22T14:54:07.698Z,29.97
2023-05-22T14:56:35.988Z,30.39
2023-05-22T14:59:04.057Z,30.00
2023-05-22T15:01:32.151Z,29.62
2023-05-22T15:04:00.256Z,30.00
2023-05-22T15:06:28.943Z,30.57
2023-05-22T15:08:58.373Z,30.43
2023-05-22T15:11:27.158Z,30.60
2023-05-22T15:13:55.426Z,30.80
2023-05-22T15:16:23.593Z,31.14
2023-05-22T15:18:52.373Z,30.78
2023-05-22T15:21:20.558Z,31.18
2023-05-22T15:23:48.617Z,30.65
2023-05-22T15:26:18.084Z,31.15
2023-05-22T15:28:46.156Z,31.46
2023-05-22T15:31:14.847Z,31.25
2023-05-22T15:33:43.037Z,31.29
2023-05-22T15:36:11.086Z,31.63
2023-05-22T15:38:39.212Z,31.16
2023-05-22T15:41:07.298Z,31.41
2023-05-22T15:43:36.714Z,30.96
2023-05-22T15:46:04.985Z,30.36
2023-05-22T15:48:33.307Z,30.77
2023-05-22T15:51:01.423Z,31.17
2023-05-22T15:53:29.436Z,31.81
2023-05-22T15:55:57.478Z,31.49
2023-05-22T15:58:25.561Z,31.42
2023-05-22T16:00:56.589Z,31.59
2023-05-22T16:03:25.124Z,31.40
2023-05-22T16:05:53.528Z,31.56
2023-05-22T16:08:21.634Z,31.14
2023-05-22T16:10:49.806Z,31.39
2023-05-22T16:13:18.114Z,31.15
2023-05-22T16:15:46.175Z,31.16
2023-05-22T16:18:15.613Z,31.83
2023-05-22T16:20:43.678Z,33.49
2023-05-22T16:23:11.691Z,33.98
2023-05-22T16:25:39.828Z,34.44
2023-05-22T16:28:08.129Z,34.29
2023-05-22T16:30:36.568Z,34.73
2023-05-22T16:33:04.857Z,35.04
2023-05-22T16:35:34.349Z,35.06
2023-05-22T16:38:03.464Z,34.66
2023-05-22T16:40:31.617Z,35.07
2023-05-22T16:42:59.678Z,35.02
2023-05-22T16:45:27.872Z,34.75
2023-05-22T16:47:56.269Z,34.77
2023-05-22T16:50:24.424Z,35.01
2023-05-22T16:52:53.839Z,35.24
2023-05-22T16:55:22.108Z,35.22
2023-05-22T16:57:50.435Z,35.53
2023-05-22T17:00:20.096Z,35.74
2023-05-22T17:02:48.538Z,35.44
2023-05-22T17:05:16.747Z,35.38
2023-05-22T17:07:44.816Z,34.85
2023-05-22T17:10:14.905Z,34.80
2023-05-22T17:12:42.972Z,35.13
2023-05-22T17:15:12.686Z,34.96
2023-05-22T17:17:40.791Z,35.00
2023-05-22T17:20:11.677Z,35.13
2023-05-22T17:22:40.089Z,35.44
2023-05-22T17:25:09.593Z,35.17
2023-05-22T17:27:38.972Z,35.60
2023-05-22T17:30:08.771Z,35.74
2023-05-22T17:32:37.097Z,35.64
2023-05-22T17:35:06.445Z,35.71
2023-05-22T17:37:34.822Z,35.93
2023-05-22T17:40:03.840Z,35.98
2023-05-22T17:42:31.898Z,35.83
2023-05-22T17:45:01.298Z,36.24
2023-05-22T17:47:29.349Z,36.49
2023-05-22T17:49:57.442Z,36.92
2023-05-22T17:52:25.701Z,37.00
2023-05-22T17:54:55.851Z,37.31
2023-05-22T17:57:23.992Z,37.25
2023-05-22T17:59:52.096Z,37.50
2023-05-22T18:02:21.648Z,37.69
2023-05-22T18:04:49.849Z,38.32
2023-05-22T18:07:19.214Z,38.21
2023-05-22T18:09:47.391Z,37.91
2023-05-22T18:12:31.316Z,37.79
2023-05-22T18:15:00.762Z,37.93
2023-05-22T18:17:30.435Z,38.19
2023-05-22T18:19:58.618Z,38.22
2023-05-22T18:22:26.785Z,38.81
2023-05-22T18:25:01.292Z,38.75
2023-05-22T18:27:29.450Z,38.78
2023-05-22T18:29:58.205Z,39.37
2023-05-22T18:32:26.487Z,39.66
2023-05-22T18:34:58.424Z,39.71
2023-05-22T18:37:26.598Z,39.99
2023-05-22T18:39:54.787Z,40.37
2023-05-22T18:42:22.919Z,40.39
2023-05-22T18:44:51.094Z,40.41
2023-05-22T18:47:19.228Z,40.96
2023-05-22T18:49:47.430Z,40.88
2023-05-22T18:52:16.946Z,41.43
2023-05-22T18:54:45.061Z,41.46
2023-05-22T18:57:13.849Z,41.71
2023-05-22T18:59:42.343Z,41.95
2023-05-22T19:02:10.640Z,42.08
2023-05-22T19:04:38.868Z,41.94
2023-05-22T19:07:07.806Z,42.18
2023-05-22T19:09:38.252Z,42.58
2023-05-22T19:12:07.377Z,43.13
2023-05-22T19:14:35.576Z,43.46
2023-05-22T19:17:03.774Z,43.05
2023-05-22T19:19:31.971Z,43.42
2023-05-22T19:22:00.184Z,43.42
2023-05-22T19:24:28.476Z,43.91
2023-05-22T19:26:58.035Z,43.40
2023-05-22T19:29:26.193Z,43.76
2023-05-22T19:31:54.379Z,43.65
2023-05-22T19:34:22.555Z,43.38
2023-05-22T19:36:51.730Z,43.56
2023-05-22T19:39:19.856Z,43.71
2023-05-22T19:41:48.001Z,43.83
2023-05-22T19:44:17.516Z,43.57
2023-05-22T19:46:46.231Z,43.60
2023-05-22T19:49:14.666Z,43.76
2023-05-22T19:51:44.041Z,43.70
2023-05-22T19:54:12.253Z,44.14
2023-05-22T19:56:40.414Z,44.20
2023-05-22T19:59:08.529Z,44.12
2023-05-22T20:01:38.080Z,44.50
2023-05-22T20:04:06.230Z,44.45
2023-05-22T20:06:35.072Z,44.11
2023-05-22T20:09:05.725Z,44.12
2023-05-22T20:11:33.903Z,44.37
2023-05-22T20:14:03.376Z,44.96
2023-05-22T20:16:31.816Z,45.06
2023-05-22T20:19:02.364Z,44.47
2023-05-22T20:21:30.920Z,44.34
2023-05-22T20:23:59.149Z,44.80
2023-05-22T20:26:27.674Z,44.06
2023-05-22T20:28:55.788Z,44.57
2023-05-22T20:31:23.913Z,44.28
2023-05-22T20:33:52.096Z,45.14
2023-05-22T20:36:22.298Z,44.90
2023-05-22T20:38:50.422Z,45.31
2023-05-22T20:41:19.538Z,45.57
2023-05-22T20:43:47.998Z,45.79
2023-05-22T20:46:16.185Z,45.67
2023-05-22T20:48:46.852Z,45.12
2023-05-22T20:51:15.602Z,45.41
2023-05-22T20:53:45.175Z,45.81
2023-05-22T20:56:13.311Z,46.23
2023-05-22T20:58:42.348Z,46.36
2023-05-22T21:01:10.676Z,46.64
2023-05-22T21:03:39.011Z,46.83
2023-05-22T21:06:07.659Z,47.03
2023-05-22T21:08:35.789Z,47.24
2023-05-22T21:11:06.820Z,48.23
2023-05-22T21:13:34.926Z,48.72
2023-05-22T21:16:03.032Z,49.15
2023-05-22T21:18:31.198Z,49.79
2023-05-22T21:20:59.386Z,50.52
2023-05-22T21:23:27.568Z,51.57
2023-05-22T21:25:55.785Z,51.64
2023-05-22T21:28:25.409Z,52.40
2023-05-22T21:30:53.550Z,52.58
2023-05-22T21:33:21.742Z,52.88
2023-05-22T21:35:50.096Z,53.32
2023-05-22T21:38:18.227Z,53.53
2023-05-22T21:40:46.405Z,53.20
2023-05-22T21:43:14.601Z,53.29
2023-05-22T21:45:44.093Z,53.25
2023-05-22T21:48:12.355Z,53.03
2023-05-22T21:50:40.768Z,53.25
2023-05-22T21:53:09.059Z,53.49
2023-05-22T21:55:37.235Z,53.69
2023-05-22T21:58:05.406Z,53.61
2023-05-22T22:00:33.524Z,53.63
2023-05-22T22:03:03.232Z,53.59
2023-05-22T22:05:31.450Z,54.22
2023-05-22T22:07:59.598Z,54.69
2023-05-22T22:10:27.738Z,55.26
2023-05-22T22:12:55.994Z,55.40
2023-05-22T22:15:24.405Z,55.91
2023-05-22T22:17:53.216Z,56.53
2023-05-22T22:20:30.507Z,56.54
2023-05-22T22:23:02.145Z,57.03
2023-05-22T22:25:30.287Z,57.49
2023-05-22T22:27:58.493Z,57.65
2023-05-22T22:30:26.674Z,58.44
2023-05-22T22:32:54.848Z,59.32
2023-05-22T22:35:24.408Z,59.82
2023-05-22T22:37:52.563Z,60.46
2023-05-22T22:40:20.756Z,61.08
2023-05-22T22:42:48.881Z,61.50
2023-05-22T22:45:17.055Z,61.92
2023-05-22T22:47:47.353Z,62.58
2023-05-22T22:50:15.960Z,62.66
2023-05-22T22:52:46.574Z,62.84
2023-05-22T22:55:14.849Z,62.88
2023-05-22T22:57:44.657Z,62.61
2023-05-22T23:00:14.256Z,62.58
2023-05-22T23:02:42.554Z,63.20
2023-05-22T23:05:11.326Z,63.38
2023-05-22T23:07:39.537Z,63.42
2023-05-22T23:10:10.691Z,63.49
2023-05-22T23:12:38.836Z,62.66
2023-05-22T23:15:09.100Z,62.69
2023-05-22T23:17:37.430Z,62.66
2023-05-22T23:20:07.090Z,62.44
2023-05-22T23:22:35.278Z,61.89
2023-05-22T23:25:03.736Z,61.92
2023-05-22T23:27:33.304Z,61.76
2023-05-22T23:30:01.537Z,61.64
2023-05-22T23:32:29.888Z,61.59
2023-05-22T23:34:58.062Z,61.72
2023-05-22T23:37:26.218Z,61.79
2023-05-22T23:39:55.347Z,61.76
2023-05-22T23:42:23.457Z,61.45
2023-05-22T23:44:52.966Z,61.73
2023-05-22T23:47:21.387Z,61.74
2023-05-22T23:49:49.557Z,62.13
2023-05-22T23:52:17.707Z,61.69
2023-05-22T23:54:46.508Z,61.97
2023-05-22T23:57:14.738Z,62.36
2023-05-22T23:59:43.657Z,62.31
